createdAt,value
2018-07-26T00:01:06.572Z,16.20
2018-07-26T00:03:35.809Z,16.20
2018-07-26T00:06:04.408Z,16.10
2018-07-26T00:08:32.884Z,16.10
2018-07-26T00:11:01.389Z,16.10
2018-07-26T00:13:30.084Z,16.10
2018-07-26T00:15:58.540Z,16.00
2018-07-26T00:18:27.047Z,15.90
2018-07-26T00:20:55.480Z,15.80
2018-07-26T00:23:24.021Z,15.80
2018-07-26T00:25:53.422Z,15.70
2018-07-26T00:28:21.941Z,15.60
2018-07-26T00:30:50.393Z,15.60
2018-07-26T00:33:18.836Z,15.70
2018-07-26T00:35:47.313Z,15.70
2018-07-26T00:38:15.815Z,15.70
2018-07-26T00:40:44.236Z,15.70
2018-07-26T00:43:12.800Z,15.70
2018-07-26T00:45:41.255Z,15.60
2018-07-26T00:48:09.772Z,15.60
2018-07-26T00:50:38.220Z,15.50
2018-07-26T00:53:07.235Z,15.40
2018-07-26T00:55:35.702Z,15.50
2018-07-26T00:58:04.173Z,15.40
2018-07-26T01:00:32.803Z,15.40
2018-07-26T01:03:01.325Z,15.40
2018-07-26T01:05:29.864Z,15.40
2018-07-26T01:07:58.313Z,15.40
2018-07-26T01:10:26.767Z,15.30
2018-07-26T01:12:55.213Z,15.20
2018-07-26T01:15:23.740Z,15.20
2018-07-26T01:17:52.228Z,15.10
2018-07-26T01:20:20.684Z,15.10
2018-07-26T01:22:49.157Z,15.10
2018-07-26T01:25:17.602Z,15.10
2018-07-26T01:27:46.034Z,15.10
2018-07-26T01:30:14.667Z,15.10
2018-07-26T01:32:43.127Z,15.00
2018-07-26T01:35:11.569Z,15.00
2018-07-26T01:37:40.129Z,15.00
2018-07-26T01:40:08.557Z,15.00
2018-07-26T01:43:48.273Z,14.90
2018-07-26T01:46:17.633Z,14.90
2018-07-26T01:48:47.241Z,14.80
2018-07-26T01:51:15.760Z,14.70
2018-07-26T01:53:45.592Z,14.70
2018-07-26T01:56:14.144Z,14.60
2018-07-26T01:58:42.671Z,14.60
2018-07-26T02:01:12.313Z,14.60
2018-07-26T02:03:41.501Z,14.60
2018-07-26T02:06:10.193Z,14.60
2018-07-26T02:08:38.796Z,14.60
2018-07-26T02:11:07.204Z,14.50
2018-07-26T02:13:35.644Z,14.50
2018-07-26T02:16:04.157Z,14.50
2018-07-26T02:18:32.622Z,14.50
2018-07-26T02:21:01.045Z,14.40
2018-07-26T02:23:29.510Z,14.40
2018-07-26T02:25:58.016Z,14.40
2018-07-26T02:28:26.511Z,14.40
2018-07-26T02:30:54.964Z,14.30
2018-07-26T02:33:23.481Z,14.30
2018-07-26T02:35:51.906Z,14.30
2018-07-26T02:38:20.394Z,14.30
2018-07-26T02:40:48.788Z,14.20
2018-07-26T02:43:17.320Z,14.20
2018-07-26T02:45:45.817Z,14.10
2018-07-26T02:48:14.413Z,14.10
2018-07-26T02:50:42.889Z,14.00
2018-07-26T02:53:11.425Z,14.10
2018-07-26T02:55:39.910Z,14.00
2018-07-26T02:58:08.435Z,14.10
2018-07-26T03:00:36.905Z,14.00
2018-07-26T03:03:05.367Z,14.00
2018-07-26T03:05:33.796Z,13.90
2018-07-26T03:08:02.278Z,14.00
2018-07-26T03:12:58.895Z,14.10
2018-07-26T03:15:27.364Z,14.00
2018-07-26T03:17:55.769Z,13.90
2018-07-26T03:20:24.210Z,13.90
2018-07-26T03:22:52.660Z,13.90
2018-07-26T03:25:21.112Z,13.80
2018-07-26T03:27:49.577Z,13.80
2018-07-26T03:30:18.013Z,13.80
2018-07-26T03:32:46.516Z,13.80
2018-07-26T03:35:15.176Z,13.70
2018-07-26T03:37:43.612Z,13.70
2018-07-26T03:40:12.085Z,13.70
2018-07-26T03:42:40.605Z,13.70
2018-07-26T03:45:09.040Z,13.60
2018-07-26T03:47:37.553Z,13.70
2018-07-26T03:50:06.074Z,13.60
2018-07-26T03:55:02.722Z,13.50
2018-07-26T03:57:31.292Z,13.50
2018-07-26T03:59:59.779Z,13.60
2018-07-26T04:02:28.280Z,13.60
2018-07-26T04:07:24.883Z,13.60
2018-07-26T04:09:53.410Z,13.60
2018-07-26T04:14:50.106Z,13.50
2018-07-26T04:17:18.533Z,13.50
2018-07-26T04:19:47.004Z,13.50
2018-07-26T04:22:15.441Z,13.50
2018-07-26T04:24:44.092Z,13.60
2018-07-26T04:27:12.533Z,13.60
2018-07-26T04:29:40.976Z,13.70
2018-07-26T04:32:10.289Z,13.70
2018-07-26T04:34:38.712Z,13.70
2018-07-26T04:37:07.271Z,13.70
2018-07-26T04:39:35.704Z,13.70
2018-07-26T04:42:05.088Z,13.80
2018-07-26T04:44:33.572Z,13.80
2018-07-26T04:47:02.011Z,13.90
2018-07-26T04:49:30.437Z,13.90
2018-07-26T04:51:59.010Z,14.00
2018-07-26T04:54:27.540Z,14.00
2018-07-26T04:56:56.033Z,14.10
2018-07-26T04:59:24.500Z,14.10
2018-07-26T05:01:52.972Z,14.20
2018-07-26T05:04:21.535Z,14.20
2018-07-26T05:06:50.690Z,14.30
2018-07-26T05:09:19.120Z,14.40
2018-07-26T05:11:47.648Z,14.40
2018-07-26T05:14:16.208Z,14.50
2018-07-26T05:16:44.697Z,14.60
2018-07-26T05:19:13.176Z,14.70
2018-07-26T05:21:41.585Z,14.80
2018-07-26T05:24:10.821Z,14.90
2018-07-26T05:26:39.999Z,15.00
2018-07-26T05:29:08.496Z,15.10
2018-07-26T05:31:36.893Z,15.20
2018-07-26T05:34:05.456Z,15.30
2018-07-26T05:36:33.956Z,15.50
2018-07-26T05:39:02.514Z,15.60
2018-07-26T05:41:31.034Z,15.60
2018-07-26T05:46:27.651Z,15.80
2018-07-26T05:48:56.222Z,16.00
2018-07-26T05:51:25.276Z,16.20
2018-07-26T05:53:53.752Z,16.30
2018-07-26T05:56:22.183Z,16.50
2018-07-26T05:58:50.694Z,16.80
2018-07-26T06:01:19.113Z,16.90
2018-07-26T06:03:48.352Z,17.00
2018-07-26T06:06:16.981Z,17.10
2018-07-26T06:11:13.694Z,17.40
2018-07-26T06:13:42.216Z,17.70
2018-07-26T06:16:11.538Z,18.00
2018-07-26T06:18:40.081Z,18.20
2018-07-26T06:21:08.757Z,18.40
2018-07-26T06:23:37.336Z,18.80
2018-07-26T06:26:05.886Z,19.00
2018-07-26T06:31:02.521Z,19.50
2018-07-26T06:33:31.154Z,19.70
2018-07-26T06:35:59.556Z,19.90
2018-07-26T06:38:28.030Z,20.20
2018-07-26T06:40:56.488Z,20.50
2018-07-26T06:43:25.053Z,20.80
2018-07-26T06:45:53.529Z,21.10
2018-07-26T06:48:21.983Z,21.40
2018-07-26T06:50:50.873Z,21.70
2018-07-26T06:53:19.349Z,21.80
2018-07-26T06:55:47.821Z,22.20
2018-07-26T06:58:16.292Z,22.60
2018-07-26T07:00:44.807Z,22.80
2018-07-26T07:03:13.312Z,22.90
2018-07-26T07:05:41.808Z,23.10
2018-07-26T07:08:10.362Z,23.40
2018-07-26T07:10:38.898Z,23.70
2018-07-26T07:13:07.393Z,24.10
2018-07-26T07:15:36.325Z,24.10
2018-07-26T07:18:04.980Z,24.40
2018-07-26T07:20:33.516Z,24.60
2018-07-26T07:23:01.977Z,24.80
2018-07-26T07:25:30.452Z,25.10
2018-07-26T07:27:59.057Z,25.30
2018-07-26T07:30:27.600Z,25.80
2018-07-26T07:32:56.201Z,26.00
2018-07-26T07:35:24.709Z,26.30
2018-07-26T07:40:21.436Z,26.60
2018-07-26T07:42:49.938Z,26.80
2018-07-26T07:47:47.488Z,27.00
2018-07-26T07:50:15.981Z,27.20
2018-07-26T07:55:12.710Z,27.90
2018-07-26T07:57:41.354Z,28.00
2018-07-26T08:00:11.132Z,27.80
2018-07-26T08:02:39.614Z,27.90
2018-07-26T08:05:08.244Z,28.10
2018-07-26T08:07:36.925Z,28.20
2018-07-26T08:10:07.414Z,28.50
2018-07-26T08:12:35.978Z,28.60
2018-07-26T08:15:05.585Z,28.70
2018-07-26T08:17:34.132Z,28.70
2018-07-26T08:20:02.914Z,28.90
2018-07-26T08:22:31.581Z,28.60
2018-07-26T08:25:00.117Z,28.90
2018-07-26T08:27:28.601Z,28.90
2018-07-26T08:29:57.079Z,29.30
2018-07-26T08:32:25.605Z,29.30
2018-07-26T08:34:54.104Z,29.30
2018-07-26T08:37:23.367Z,29.20
2018-07-26T08:39:51.845Z,29.30
2018-07-26T08:42:20.414Z,29.40
2018-07-26T08:44:48.945Z,29.30
2018-07-26T08:47:17.555Z,29.30
2018-07-26T08:49:46.053Z,29.60
2018-07-26T08:52:14.735Z,29.00
2018-07-26T08:54:43.138Z,29.40
2018-07-26T08:57:11.732Z,29.70
2018-07-26T08:59:40.276Z,29.80
2018-07-26T09:02:08.877Z,29.70
2018-07-26T09:04:37.472Z,29.70
2018-07-26T09:07:06.603Z,29.90
2018-07-26T09:09:35.069Z,30.20
2018-07-26T09:12:03.504Z,30.30
2018-07-26T09:14:32.024Z,30.30
2018-07-26T09:17:00.589Z,30.20
2018-07-26T09:19:29.176Z,30.50
2018-07-26T09:21:57.639Z,30.80
2018-07-26T09:24:26.205Z,30.70
2018-07-26T09:26:54.585Z,30.30
2018-07-26T09:29:23.098Z,30.30
2018-07-26T09:31:51.544Z,30.50
2018-07-26T09:36:48.154Z,30.20
2018-07-26T09:39:16.641Z,30.40
2018-07-26T09:41:45.170Z,30.70
2018-07-26T09:44:13.689Z,30.70
2018-07-26T09:46:42.179Z,30.20
2018-07-26T09:49:10.728Z,30.40
2018-07-26T09:51:39.232Z,30.60
2018-07-26T09:54:08.385Z,31.00
2018-07-26T09:56:36.920Z,31.10
2018-07-26T09:59:05.565Z,30.70
2018-07-26T10:01:35.464Z,30.80
2018-07-26T10:04:04.210Z,30.80
2018-07-26T10:06:32.715Z,31.40
2018-07-26T10:09:01.365Z,31.10
2018-07-26T10:11:30.474Z,31.30
2018-07-26T10:13:59.183Z,31.70
2018-07-26T10:16:27.641Z,31.70
2018-07-26T10:18:56.125Z,31.50
2018-07-26T10:21:24.588Z,31.00
2018-07-26T10:23:53.064Z,31.80
2018-07-26T10:26:21.545Z,31.80
2018-07-26T10:28:50.081Z,31.10
2018-07-26T10:31:18.909Z,30.50
2018-07-26T10:33:47.585Z,29.80
2018-07-26T10:38:44.300Z,30.70
2018-07-26T10:41:12.931Z,30.80
2018-07-26T10:43:41.465Z,30.70
2018-07-26T10:46:09.968Z,29.90
2018-07-26T10:51:06.611Z,30.50
2018-07-26T10:53:35.103Z,30.50
2018-07-26T10:56:03.985Z,30.20
2018-07-26T10:58:32.488Z,29.90
2018-07-26T11:01:01.841Z,30.00
2018-07-26T11:03:30.509Z,30.70
2018-07-26T11:05:59.211Z,30.50
2018-07-26T11:08:28.274Z,30.00
2018-07-26T11:10:56.861Z,30.50
2018-07-26T11:13:25.312Z,31.10
2018-07-26T11:15:53.874Z,31.40
2018-07-26T11:18:22.367Z,31.90
2018-07-26T11:20:50.935Z,32.10
2018-07-26T11:23:19.416Z,31.30
2018-07-26T11:25:48.018Z,30.70
2018-07-26T11:28:16.474Z,30.20
2018-07-26T11:30:45.381Z,30.50
2018-07-26T11:33:13.864Z,30.30
2018-07-26T11:35:42.372Z,30.80
2018-07-26T11:38:10.920Z,31.20
2018-07-26T11:40:39.460Z,31.40
2018-07-26T11:45:36.117Z,30.50
2018-07-26T11:48:04.697Z,31.00
2018-07-26T11:53:01.316Z,31.20
2018-07-26T11:55:29.761Z,31.60
2018-07-26T11:57:58.282Z,31.90
2018-07-26T12:00:26.807Z,32.30
2018-07-26T12:02:55.360Z,32.50
2018-07-26T12:05:23.768Z,32.40
2018-07-26T12:07:52.204Z,32.50
2018-07-26T12:10:20.728Z,32.00
2018-07-26T12:12:49.204Z,31.70
2018-07-26T12:15:17.695Z,31.20
2018-07-26T12:17:46.259Z,31.00
2018-07-26T12:20:14.732Z,31.50
2018-07-26T12:22:43.289Z,31.70
2018-07-26T12:25:11.920Z,31.90
2018-07-26T12:27:40.433Z,32.50
2018-07-26T12:30:09.010Z,32.60
2018-07-26T12:32:38.040Z,32.70
2018-07-26T12:35:06.651Z,32.80
2018-07-26T12:37:35.118Z,32.20
2018-07-26T12:40:03.844Z,32.70
2018-07-26T12:42:32.380Z,32.70
2018-07-26T12:45:01.290Z,32.60
2018-07-26T12:47:29.811Z,32.70
2018-07-26T12:52:26.673Z,32.50
2018-07-26T12:54:55.255Z,31.90
2018-07-26T12:57:23.774Z,31.60
2018-07-26T12:59:53.017Z,31.50
2018-07-26T13:02:21.473Z,30.80
2018-07-26T13:04:49.955Z,31.30
2018-07-26T13:07:18.492Z,31.50
2018-07-26T13:09:47.021Z,31.80
2018-07-26T13:12:15.794Z,31.90
2018-07-26T13:14:44.228Z,31.40
2018-07-26T13:17:13.712Z,31.80
2018-07-26T13:19:43.188Z,31.70
2018-07-26T13:22:11.796Z,31.80
2018-07-26T13:24:40.297Z,32.30
2018-07-26T13:29:37.403Z,31.10
2018-07-26T13:32:06.765Z,30.70
2018-07-26T13:37:03.480Z,30.90
2018-07-26T13:39:32.012Z,31.20
2018-07-26T13:42:00.496Z,31.40
2018-07-26T13:44:28.955Z,31.50
2018-07-26T13:46:57.433Z,31.80
2018-07-26T13:49:26.044Z,31.90
2018-07-26T13:54:22.622Z,31.80
2018-07-26T13:56:51.060Z,31.80
2018-07-26T13:59:19.551Z,32.00
2018-07-26T14:06:44.356Z,32.50
2018-07-26T14:09:13.157Z,32.60
2018-07-26T14:11:42.193Z,32.20
2018-07-26T14:14:10.687Z,32.10
2018-07-26T14:16:39.209Z,31.60
2018-07-26T14:19:08.481Z,31.70
2018-07-26T14:21:37.112Z,31.80
2018-07-26T14:24:11.237Z,32.10
2018-07-26T14:26:39.712Z,32.30
2018-07-26T14:31:37.513Z,32.10
2018-07-26T14:34:05.959Z,32.00
2018-07-26T14:36:34.447Z,31.70
2018-07-26T14:39:03.495Z,31.40
2018-07-26T14:41:33.050Z,31.50
2018-07-26T14:44:01.677Z,31.60
2018-07-26T14:46:30.164Z,31.60
2018-07-26T14:48:58.750Z,31.50
2018-07-26T14:51:27.295Z,31.50
2018-07-26T14:58:52.482Z,30.80
2018-07-26T15:03:49.353Z,30.90
2018-07-26T15:06:18.670Z,30.80
2018-07-26T15:08:47.171Z,30.70
2018-07-26T15:11:15.980Z,30.90
2018-07-26T15:16:12.780Z,30.60
2018-07-26T15:18:42.249Z,30.40
2018-07-26T15:21:10.905Z,29.90
2018-07-26T15:23:40.193Z,29.60
2018-07-26T15:26:08.693Z,29.50
2018-07-26T15:28:37.107Z,29.50
2018-07-26T15:31:05.685Z,29.70
2018-07-26T15:33:34.160Z,29.80
2018-07-26T15:36:02.712Z,29.90
2018-07-26T15:38:31.220Z,29.90
2018-07-26T15:43:27.949Z,29.70
2018-07-26T15:45:56.520Z,29.70
2018-07-26T15:48:25.113Z,29.60
2018-07-26T15:50:53.685Z,29.50
2018-07-26T15:53:22.495Z,29.50
2018-07-26T15:55:50.941Z,29.50
2018-07-26T15:58:19.532Z,29.30
2018-07-26T16:00:48.085Z,29.30
2018-07-26T16:03:16.678Z,29.20
2018-07-26T16:05:45.164Z,29.10
2018-07-26T16:08:13.722Z,29.10
2018-07-26T16:10:42.171Z,29.00
2018-07-26T16:13:10.709Z,28.90
2018-07-26T16:15:39.185Z,28.70
2018-07-26T16:18:07.776Z,28.70
2018-07-26T16:33:40.604Z,28.60
2018-07-26T16:38:37.233Z,28.10
2018-07-26T16:41:05.851Z,28.10
2018-07-26T16:43:34.317Z,27.90
2018-07-26T16:46:02.845Z,27.80
2018-07-26T16:48:31.355Z,27.70
2018-07-26T16:50:59.822Z,27.70
2018-07-26T16:53:28.335Z,27.70
2018-07-26T16:55:56.837Z,27.70
2018-07-26T17:00:53.554Z,27.60
2018-07-26T17:03:22.010Z,27.60
2018-07-26T17:05:50.547Z,27.60
2018-07-26T17:08:19.071Z,27.50
2018-07-26T17:10:47.801Z,27.40
2018-07-26T17:13:16.370Z,27.40
2018-07-26T17:15:44.940Z,27.30
2018-07-26T17:18:13.415Z,27.30
2018-07-26T17:20:41.889Z,27.30
2018-07-26T17:25:38.762Z,27.10
2018-07-26T17:28:07.592Z,27.10
2018-07-26T17:30:36.204Z,27.10
2018-07-26T17:33:04.749Z,27.10
2018-07-26T17:35:33.354Z,27.00
2018-07-26T17:38:01.920Z,26.90
2018-07-26T17:40:30.394Z,26.90
2018-07-26T17:42:58.879Z,26.80
2018-07-26T17:45:27.367Z,26.70
2018-07-26T17:47:55.836Z,26.60
2018-07-26T17:50:24.317Z,26.40
2018-07-26T17:52:52.896Z,26.30
2018-07-26T17:55:21.421Z,26.20
2018-07-26T17:57:49.920Z,26.20
2018-07-26T18:00:18.446Z,26.10
2018-07-26T18:02:46.948Z,25.90
2018-07-26T18:05:15.664Z,25.90
2018-07-26T18:07:44.174Z,25.80
2018-07-26T18:10:12.640Z,25.60
2018-07-26T18:12:41.097Z,25.60
2018-07-26T18:15:09.837Z,25.50
2018-07-26T18:17:39.389Z,25.30
2018-07-26T18:20:08.290Z,25.20
2018-07-26T18:22:36.914Z,24.90
2018-07-26T18:25:05.644Z,24.80
2018-07-26T18:27:34.147Z,24.60
2018-07-26T18:30:02.632Z,24.50
2018-07-26T18:32:31.600Z,24.30
2018-07-26T18:35:00.297Z,24.10
2018-07-26T18:37:28.864Z,23.90
2018-07-26T18:39:57.358Z,23.80
2018-07-26T18:42:26.056Z,23.60
2018-07-26T18:44:54.605Z,23.40
2018-07-26T18:47:23.214Z,23.30
2018-07-26T18:49:51.692Z,23.20
2018-07-26T18:52:20.185Z,23.10
2018-07-26T18:54:48.708Z,22.90
2018-07-26T18:57:17.229Z,22.90
2018-07-26T18:59:45.824Z,22.90
2018-07-26T19:02:14.410Z,22.60
2018-07-26T19:04:42.792Z,22.30
2018-07-26T19:07:11.383Z,22.10
2018-07-26T19:09:39.926Z,21.90
2018-07-26T19:12:08.424Z,21.80
2018-07-26T19:14:36.893Z,21.80
2018-07-26T19:17:05.928Z,21.70
2018-07-26T19:19:34.423Z,21.60
2018-07-26T19:22:03.037Z,21.50
2018-07-26T19:24:31.543Z,21.50
2018-07-26T19:26:59.990Z,21.30
2018-07-26T19:29:28.575Z,21.20
2018-07-26T19:34:25.346Z,21.00
2018-07-26T19:36:53.868Z,20.90
2018-07-26T19:39:22.357Z,20.80
2018-07-26T19:41:50.865Z,20.80
2018-07-26T19:44:19.449Z,20.60
2018-07-26T19:46:48.112Z,20.50
2018-07-26T19:49:16.728Z,20.40
2018-07-26T19:51:45.416Z,20.30
2018-07-26T19:54:13.881Z,20.20
2018-07-26T19:56:42.451Z,20.10
2018-07-26T19:59:11.580Z,20.00
2018-07-26T20:01:40.213Z,20.00
2018-07-26T20:04:08.810Z,19.80
2018-07-26T20:06:37.437Z,19.80
2018-07-26T20:09:08.634Z,19.70
2018-07-26T20:11:37.450Z,19.60
2018-07-26T20:14:06.982Z,19.50
2018-07-26T20:16:35.563Z,19.50
2018-07-26T20:19:04.085Z,19.40
2018-07-26T20:21:32.541Z,19.30
2018-07-26T20:24:01.137Z,19.20
2018-07-26T20:26:29.641Z,19.20
2018-07-26T20:28:58.737Z,19.10
2018-07-26T20:31:27.168Z,19.00
2018-07-26T20:36:23.867Z,18.90
2018-07-26T20:38:52.528Z,18.80
2018-07-26T20:41:20.972Z,18.70
2018-07-26T20:43:49.662Z,18.60
2018-07-26T20:46:18.093Z,18.40
2018-07-26T20:48:46.572Z,18.30
2018-07-26T20:51:15.053Z,18.30
2018-07-26T20:53:43.530Z,18.30
2018-07-26T20:56:12.029Z,18.20
2018-07-26T20:58:40.501Z,18.20
2018-07-26T21:01:09.441Z,18.10
2018-07-26T21:03:37.856Z,18.10
2018-07-26T21:06:06.362Z,18.10
2018-07-26T21:08:35.471Z,18.10
2018-07-26T21:11:04.773Z,18.00
2018-07-26T21:13:33.206Z,17.90
2018-07-26T21:16:01.712Z,17.80
2018-07-26T21:18:30.353Z,17.80
2018-07-26T21:20:58.756Z,17.80
2018-07-26T21:23:27.255Z,17.70
2018-07-26T21:25:56.629Z,17.70
2018-07-26T21:28:25.104Z,17.60
2018-07-26T21:30:53.637Z,17.60
2018-07-26T21:33:22.112Z,17.60
2018-07-26T21:35:50.579Z,17.50
2018-07-26T21:38:19.227Z,17.30
2018-07-26T21:40:47.692Z,17.30
2018-07-26T21:43:16.700Z,17.30
2018-07-26T21:45:45.153Z,17.30
2018-07-26T21:48:13.646Z,17.20
2018-07-26T21:50:42.093Z,17.10
2018-07-26T21:53:10.570Z,17.00
2018-07-26T21:55:39.068Z,16.90
2018-07-26T21:58:07.528Z,17.00
2018-07-26T22:00:41.778Z,17.00
2018-07-26T22:03:10.367Z,16.90
2018-07-26T22:05:38.919Z,16.90
2018-07-26T22:08:07.417Z,16.90
2018-07-26T22:10:35.923Z,16.90
2018-07-26T22:13:04.514Z,16.70
2018-07-26T22:15:33.031Z,16.60
2018-07-26T22:18:01.484Z,16.60
2018-07-26T22:20:29.917Z,16.50
2018-07-26T22:22:58.395Z,16.50
2018-07-26T22:25:26.888Z,16.50
2018-07-26T22:27:55.355Z,16.40
2018-07-26T22:30:23.845Z,16.30
2018-07-26T22:32:52.315Z,16.30
2018-07-26T22:35:20.764Z,16.20
2018-07-26T22:37:49.193Z,16.30
2018-07-26T22:40:17.705Z,16.20
2018-07-26T22:42:46.177Z,16.20
2018-07-26T22:45:14.772Z,16.10
2018-07-26T22:47:43.210Z,16.00
2018-07-26T22:50:11.721Z,15.90
2018-07-26T22:52:40.304Z,15.90
2018-07-26T22:55:09.396Z,15.80
2018-07-26T22:57:37.884Z,15.80
2018-07-26T23:00:06.711Z,15.80
2018-07-26T23:02:35.717Z,15.80
2018-07-26T23:05:04.636Z,15.90
2018-07-26T23:07:33.087Z,15.80
2018-07-26T23:10:01.513Z,15.70
2018-07-26T23:12:30.001Z,15.70
2018-07-26T23:14:58.933Z,15.60
2018-07-26T23:17:27.413Z,15.60
2018-07-26T23:19:55.941Z,15.60
2018-07-26T23:22:24.409Z,15.60
2018-07-26T23:24:53.984Z,15.60
2018-07-26T23:27:22.552Z,15.60
2018-07-26T23:29:51.084Z,15.50
2018-07-26T23:32:19.553Z,15.50
2018-07-26T23:34:48.613Z,15.40
2018-07-26T23:37:17.216Z,15.30
2018-07-26T23:39:45.692Z,15.40
2018-07-26T23:42:14.183Z,15.40
2018-07-26T23:44:43.427Z,15.30
2018-07-26T23:47:11.892Z,15.30
2018-07-26T23:49:40.368Z,15.20
2018-07-26T23:52:08.845Z,15.10
2018-07-26T23:54:37.353Z,15.10
2018-07-26T23:57:05.992Z,15.10
